Priwall — V2OX8 — position and weather

sailwx.info

Track history (hours):
 
Tides and Currents Weather Stations Pressure Air Temp Water Temp Dewpoint Dewpoint Depression Visibility Wind Speed Wind Dir Waves Ship Positions

Priwall

Last reported at 2016-May-25 16:23 UTC. Time now 2016-Jun-01 07:31 UTC.
Position N 39°13' W 009°48'.

Length 88 m; draft 3.1 m.

Type: Ship. MMSI: 304739000.

Date/timePositionNaut miles runAvg speedWind from/ knotsBaromVisibWave heightAir tempDewpointWater temp
2016-May-25 16:23N 39°13' W 009°48'7 7.7
2016-May-25 15:26N 39°06' W 009°49'7 7.6
2016-May-25 14:33N 38°59' W 009°50'9 8.7
2016-May-25 13:33N 38°50' W 009°51'8 7.7
2016-May-25 12:33N 38°42' W 009°51'6 6.5
2016-May-25 11:33N 38°36' W 009°50'6 6.4
2016-May-25 10:34N 38°30' W 009°50'7 6.5
2016-May-25 09:31N 38°23' W 009°50'7 6.3
2016-May-25 08:24N 38°16' W 009°49'186 6.6
2016-May-24 04:23N 35°17' W 008°46'5 6.7
2016-May-24 03:33N 35°13' W 008°42'8 6.6
2016-May-24 02:18N 35°06' W 008°37'32 6.6
2016-May-23 21:23N 34°38' W 008°16'26 6.7
2016-May-23 17:29N 34°15' W 008°01'6 6.9
2016-May-23 16:33N 34°10' W 007°56'7 6.8
2016-May-23 15:33N 34°05' W 007°51'7 6.8
2016-May-23 14:30N 33°59' W 007°47'8 6.5
2016-May-23 13:11N 33°51' W 007°42'4 6.5
2016-May-23 12:33N 33°48' W 007°39'  
2016-May-18 03:31N 38°25' W 010°04'8 8.3
2016-May-18 02:33N 38°33' W 010°05'9 8.6
2016-May-18 01:31N 38°42' W 010°06'8 8.3
2016-May-18 00:33N 38°50' W 010°06'10 8.3
2016-May-17 23:21N 39°00' W 010°06'  
Track history (hours):
 
Tides and Currents Weather Stations Pressure Air Temp Water Temp Dewpoint Dewpoint Depression Visibility Wind Speed Wind Dir Waves Ship Positions

Priwall

Last reported at 2016-May-25 16:23 UTC. Time now 2016-Jun-01 07:31 UTC.
Position N 39°13' W 009°48'.

Length 88 m; draft 3.1 m.

Type: Ship. MMSI: 304739000.

Date/timePositionNaut miles runAvg speedWind from/ knotsBaromVisibWave heightAir tempDewpointWater temp
2016-May-25 16:23N 39°13' W 009°48'7 7.7
2016-May-25 15:26N 39°06' W 009°49'7 7.6
2016-May-25 14:33N 38°59' W 009°50'9 8.7
2016-May-25 13:33N 38°50' W 009°51'8 7.7
2016-May-25 12:33N 38°42' W 009°51'6 6.5
2016-May-25 11:33N 38°36' W 009°50'6 6.4
2016-May-25 10:34N 38°30' W 009°50'7 6.5
2016-May-25 09:31N 38°23' W 009°50'7 6.3
2016-May-25 08:24N 38°16' W 009°49'186 6.6
2016-May-24 04:23N 35°17' W 008°46'5 6.7
2016-May-24 03:33N 35°13' W 008°42'8 6.6
2016-May-24 02:18N 35°06' W 008°37'32 6.6
2016-May-23 21:23N 34°38' W 008°16'26 6.7
2016-May-23 17:29N 34°15' W 008°01'6 6.9
2016-May-23 16:33N 34°10' W 007°56'7 6.8
2016-May-23 15:33N 34°05' W 007°51'7 6.8
2016-May-23 14:30N 33°59' W 007°47'8 6.5
2016-May-23 13:11N 33°51' W 007°42'4 6.5
2016-May-23 12:33N 33°48' W 007°39'  
2016-May-18 03:31N 38°25' W 010°04'8 8.3
2016-May-18 02:33N 38°33' W 010°05'9 8.6
2016-May-18 01:31N 38°42' W 010°06'8 8.3
2016-May-18 00:33N 38°50' W 010°06'10 8.3
2016-May-17 23:21N 39°00' W 010°06'  

Dump ship's entire track history